sensor_id;sensor_type;location;lat;lon;timestamp;P1;durP1;ratioP1;P2;durP2;ratioP2
47529;SDS011;33272;51.922;7.730;2022-12-07T00:01:32;11.60;;;10.30;;
47529;SDS011;33272;51.922;7.730;2022-12-07T00:04:03;12.30;;;11.10;;
47529;SDS011;33272;51.922;7.730;2022-12-07T00:06:32;11.90;;;10.27;;
47529;SDS011;33272;51.922;7.730;2022-12-07T00:09:01;12.10;;;10.13;;
47529;SDS011;33272;51.922;7.730;2022-12-07T00:11:28;11.73;;;9.40;;
47529;SDS011;33272;51.922;7.730;2022-12-07T00:13:56;12.40;;;9.93;;
47529;SDS011;33272;51.922;7.730;2022-12-07T00:16:27;9.93;;;8.93;;
47529;SDS011;33272;51.922;7.730;2022-12-07T00:18:57;10.70;;;9.70;;
47529;SDS011;33272;51.922;7.730;2022-12-07T00:21:25;10.37;;;9.37;;
47529;SDS011;33272;51.922;7.730;2022-12-07T00:23:55;10.17;;;9.07;;
47529;SDS011;33272;51.922;7.730;2022-12-07T00:26:23;10.23;;;8.77;;
47529;SDS011;33272;51.922;7.730;2022-12-07T00:28:53;10.43;;;9.33;;
47529;SDS011;33272;51.922;7.730;2022-12-07T00:31:23;9.37;;;8.37;;
47529;SDS011;33272;51.922;7.730;2022-12-07T00:33:53;11.63;;;9.23;;
47529;SDS011;33272;51.922;7.730;2022-12-07T00:36:21;9.20;;;8.10;;
47529;SDS011;33272;51.922;7.730;2022-12-07T00:38:50;8.87;;;7.97;;
47529;SDS011;33272;51.922;7.730;2022-12-07T00:41:18;8.77;;;7.97;;
47529;SDS011;33272;51.922;7.730;2022-12-07T00:43:47;9.03;;;8.03;;
47529;SDS011;33272;51.922;7.730;2022-12-07T00:46:15;9.37;;;7.90;;
47529;SDS011;33272;51.922;7.730;2022-12-07T00:48:43;8.70;;;7.80;;
47529;SDS011;33272;51.922;7.730;2022-12-07T00:51:10;9.13;;;8.20;;
47529;SDS011;33272;51.922;7.730;2022-12-07T00:53:40;8.30;;;7.50;;
47529;SDS011;33272;51.922;7.730;2022-12-07T00:56:08;10.47;;;8.77;;
47529;SDS011;33272;51.922;7.730;2022-12-07T00:58:38;10.03;;;8.17;;
47529;SDS011;33272;51.922;7.730;2022-12-07T01:01:05;8.53;;;7.70;;
47529;SDS011;33272;51.922;7.730;2022-12-07T01:03:34;9.30;;;7.63;;
47529;SDS011;33272;51.922;7.730;2022-12-07T01:06:01;9.20;;;8.23;;
47529;SDS011;33272;51.922;7.730;2022-12-07T01:08:30;11.57;;;7.57;;
47529;SDS011;33272;51.922;7.730;2022-12-07T01:11:00;8.67;;;7.80;;
47529;SDS011;33272;51.922;7.730;2022-12-07T01:13:30;9.20;;;8.30;;
47529;SDS011;33272;51.922;7.730;2022-12-07T01:15:58;8.60;;;7.80;;
47529;SDS011;33272;51.922;7.730;2022-12-07T01:18:27;9.57;;;7.53;;
47529;SDS011;33272;51.922;7.730;2022-12-07T01:20:57;10.47;;;8.00;;
47529;SDS011;33272;51.922;7.730;2022-12-07T01:23:26;7.60;;;6.87;;
47529;SDS011;33272;51.922;7.730;2022-12-07T01:25:55;8.20;;;7.37;;
47529;SDS011;33272;51.922;7.730;2022-12-07T01:28:24;8.40;;;7.50;;
47529;SDS011;33272;51.922;7.730;2022-12-07T01:30:55;8.57;;;7.50;;
47529;SDS011;33272;51.922;7.730;2022-12-07T01:33:24;8.50;;;7.70;;
47529;SDS011;33272;51.922;7.730;2022-12-07T01:35:54;8.67;;;7.83;;
47529;SDS011;33272;51.922;7.730;2022-12-07T01:38:26;8.30;;;7.50;;
47529;SDS011;33272;51.922;7.730;2022-12-07T01:40:54;9.97;;;8.40;;
47529;SDS011;33272;51.922;7.730;2022-12-07T01:43:21;8.63;;;7.73;;
47529;SDS011;33272;51.922;7.730;2022-12-07T01:45:52;9.67;;;8.23;;
47529;SDS011;33272;51.922;7.730;2022-12-07T01:48:20;8.50;;;7.60;;
47529;SDS011;33272;51.922;7.730;2022-12-07T01:50:52;13.43;;;8.07;;
47529;SDS011;33272;51.922;7.730;2022-12-07T01:53:23;8.80;;;7.90;;
47529;SDS011;33272;51.922;7.730;2022-12-07T01:55:53;8.53;;;7.63;;
47529;SDS011;33272;51.922;7.730;2022-12-07T01:58:21;9.90;;;8.37;;
47529;SDS011;33272;51.922;7.730;2022-12-07T02:00:51;9.33;;;7.93;;
47529;SDS011;33272;51.922;7.730;2022-12-07T02:03:19;10.13;;;8.70;;
47529;SDS011;33272;51.922;7.730;2022-12-07T02:05:50;9.50;;;7.43;;
47529;SDS011;33272;51.922;7.730;2022-12-07T02:08:18;10.73;;;7.97;;
47529;SDS011;33272;51.922;7.730;2022-12-07T02:10:47;10.83;;;8.40;;
47529;SDS011;33272;51.922;7.730;2022-12-07T02:13:15;9.07;;;8.10;;
47529;SDS011;33272;51.922;7.730;2022-12-07T02:15:51;9.60;;;8.40;;
47529;SDS011;33272;51.922;7.730;2022-12-07T02:18:38;9.13;;;8.07;;
47529;SDS011;33272;51.922;7.730;2022-12-07T02:21:20;9.80;;;8.17;;
47529;SDS011;33272;51.922;7.730;2022-12-07T02:24:03;9.50;;;8.20;;
47529;SDS011;33272;51.922;7.730;2022-12-07T02:27:00;10.97;;;8.63;;
47529;SDS011;33272;51.922;7.730;2022-12-07T02:29:53;10.47;;;8.50;;
47529;SDS011;33272;51.922;7.730;2022-12-07T02:32:27;11.30;;;7.80;;
47529;SDS011;33272;51.922;7.730;2022-12-07T02:35:04;10.40;;;8.13;;
47529;SDS011;33272;51.922;7.730;2022-12-07T02:37:37;11.37;;;8.33;;
47529;SDS011;33272;51.922;7.730;2022-12-07T02:40:11;10.90;;;8.57;;
47529;SDS011;33272;51.922;7.730;2022-12-07T02:42:45;10.30;;;9.27;;
47529;SDS011;33272;51.922;7.730;2022-12-07T02:45:19;12.83;;;9.30;;
47529;SDS011;33272;51.922;7.730;2022-12-07T02:47:51;9.90;;;8.50;;
47529;SDS011;33272;51.922;7.730;2022-12-07T02:50:21;11.83;;;8.97;;
47529;SDS011;33272;51.922;7.730;2022-12-07T02:52:48;12.10;;;8.57;;
47529;SDS011;33272;51.922;7.730;2022-12-07T02:55:17;12.00;;;9.10;;
47529;SDS011;33272;51.922;7.730;2022-12-07T02:57:53;11.13;;;9.10;;
47529;SDS011;33272;51.922;7.730;2022-12-07T03:00:38;9.87;;;8.87;;
47529;SDS011;33272;51.922;7.730;2022-12-07T03:03:18;12.03;;;8.90;;
47529;SDS011;33272;51.922;7.730;2022-12-07T03:05:51;13.33;;;9.23;;
47529;SDS011;33272;51.922;7.730;2022-12-07T03:08:41;14.53;;;9.63;;
47529;SDS011;33272;51.922;7.730;2022-12-07T03:11:20;12.23;;;9.07;;
47529;SDS011;33272;51.922;7.730;2022-12-07T03:13:53;13.50;;;9.50;;
47529;SDS011;33272;51.922;7.730;2022-12-07T03:16:30;12.23;;;9.10;;
47529;SDS011;33272;51.922;7.730;2022-12-07T03:19:02;11.00;;;9.13;;
47529;SDS011;33272;51.922;7.730;2022-12-07T03:21:36;15.30;;;9.93;;
47529;SDS011;33272;51.922;7.730;2022-12-07T03:24:07;10.93;;;9.07;;
47529;SDS011;33272;51.922;7.730;2022-12-07T03:26:40;13.47;;;9.73;;
47529;SDS011;33272;51.922;7.730;2022-12-07T03:29:11;11.83;;;9.53;;
47529;SDS011;33272;51.922;7.730;2022-12-07T03:31:47;14.67;;;9.53;;
47529;SDS011;33272;51.922;7.730;2022-12-07T03:34:21;12.30;;;9.27;;
47529;SDS011;33272;51.922;7.730;2022-12-07T03:36:56;11.87;;;9.60;;
47529;SDS011;33272;51.922;7.730;2022-12-07T03:39:29;14.00;;;10.00;;
47529;SDS011;33272;51.922;7.730;2022-12-07T03:42:02;13.30;;;9.97;;
47529;SDS011;33272;51.922;7.730;2022-12-07T03:44:32;12.93;;;9.57;;
47529;SDS011;33272;51.922;7.730;2022-12-07T03:47:03;14.73;;;9.80;;
47529;SDS011;33272;51.922;7.730;2022-12-07T03:49:37;10.97;;;9.37;;
47529;SDS011;33272;51.922;7.730;2022-12-07T03:52:12;13.33;;;9.20;;
47529;SDS011;33272;51.922;7.730;2022-12-07T03:54:49;12.83;;;9.57;;
47529;SDS011;33272;51.922;7.730;2022-12-07T03:57:22;12.07;;;9.60;;
47529;SDS011;33272;51.922;7.730;2022-12-07T03:59:52;11.77;;;9.13;;
47529;SDS011;33272;51.922;7.730;2022-12-07T04:02:22;13.20;;;11.10;;
47529;SDS011;33272;51.922;7.730;2022-12-07T04:04:51;13.93;;;10.10;;
47529;SDS011;33272;51.922;7.730;2022-12-07T04:07:18;14.60;;;10.17;;
47529;SDS011;33272;51.922;7.730;2022-12-07T04:09:45;14.83;;;10.77;;
47529;SDS011;33272;51.922;7.730;2022-12-07T04:12:13;14.70;;;10.83;;
47529;SDS011;33272;51.922;7.730;2022-12-07T04:14:40;14.97;;;10.80;;
47529;SDS011;33272;51.922;7.730;2022-12-07T04:17:08;12.00;;;10.07;;
47529;SDS011;33272;51.922;7.730;2022-12-07T04:19:36;14.37;;;11.10;;
47529;SDS011;33272;51.922;7.730;2022-12-07T04:22:04;12.07;;;10.40;;
47529;SDS011;33272;51.922;7.730;2022-12-07T04:24:32;14.23;;;10.33;;
47529;SDS011;33272;51.922;7.730;2022-12-07T04:26:59;15.17;;;10.80;;
47529;SDS011;33272;51.922;7.730;2022-12-07T04:29:27;15.97;;;10.93;;
47529;SDS011;33272;51.922;7.730;2022-12-07T04:31:54;14.23;;;10.07;;
47529;SDS011;33272;51.922;7.730;2022-12-07T04:34:21;12.40;;;9.80;;
47529;SDS011;33272;51.922;7.730;2022-12-07T04:36:49;16.43;;;10.03;;
47529;SDS011;33272;51.922;7.730;2022-12-07T04:39:18;14.27;;;10.47;;
47529;SDS011;33272;51.922;7.730;2022-12-07T04:41:47;16.70;;;9.67;;
47529;SDS011;33272;51.922;7.730;2022-12-07T04:44:14;12.23;;;9.40;;
47529;SDS011;33272;51.922;7.730;2022-12-07T04:46:43;10.43;;;8.77;;
47529;SDS011;33272;51.922;7.730;2022-12-07T04:49:11;11.93;;;9.13;;
47529;SDS011;33272;51.922;7.730;2022-12-07T04:51:39;14.13;;;9.03;;
47529;SDS011;33272;51.922;7.730;2022-12-07T04:54:08;11.63;;;9.67;;
47529;SDS011;33272;51.922;7.730;2022-12-07T04:56:36;11.00;;;9.00;;
47529;SDS011;33272;51.922;7.730;2022-12-07T04:59:03;12.40;;;8.30;;
47529;SDS011;33272;51.922;7.730;2022-12-07T05:01:31;10.87;;;8.37;;
47529;SDS011;33272;51.922;7.730;2022-12-07T05:03:59;12.40;;;9.27;;
47529;SDS011;33272;51.922;7.730;2022-12-07T05:06:26;12.87;;;9.00;;
47529;SDS011;33272;51.922;7.730;2022-12-07T05:08:53;11.43;;;8.70;;
47529;SDS011;33272;51.922;7.730;2022-12-07T05:11:22;10.30;;;8.40;;
47529;SDS011;33272;51.922;7.730;2022-12-07T05:14:04;13.10;;;8.67;;
47529;SDS011;33272;51.922;7.730;2022-12-07T05:16:34;13.17;;;7.90;;
47529;SDS011;33272;51.922;7.730;2022-12-07T05:19:02;13.87;;;8.70;;
47529;SDS011;33272;51.922;7.730;2022-12-07T05:21:29;11.13;;;8.20;;
47529;SDS011;33272;51.922;7.730;2022-12-07T05:23:56;12.27;;;8.77;;
47529;SDS011;33272;51.922;7.730;2022-12-07T05:26:24;10.23;;;8.03;;
47529;SDS011;33272;51.922;7.730;2022-12-07T05:28:52;12.63;;;8.23;;
47529;SDS011;33272;51.922;7.730;2022-12-07T05:31:20;12.87;;;7.87;;
47529;SDS011;33272;51.922;7.730;2022-12-07T05:33:48;11.10;;;7.70;;
47529;SDS011;33272;51.922;7.730;2022-12-07T05:36:15;11.73;;;8.00;;
47529;SDS011;33272;51.922;7.730;2022-12-07T05:38:42;9.60;;;7.60;;
47529;SDS011;33272;51.922;7.730;2022-12-07T05:41:11;9.30;;;6.87;;
47529;SDS011;33272;51.922;7.730;2022-12-07T05:43:56;11.77;;;7.83;;
47529;SDS011;33272;51.922;7.730;2022-12-07T05:46:23;9.33;;;7.03;;
47529;SDS011;33272;51.922;7.730;2022-12-07T05:48:50;13.37;;;7.13;;
47529;SDS011;33272;51.922;7.730;2022-12-07T05:51:17;10.60;;;7.10;;
47529;SDS011;33272;51.922;7.730;2022-12-07T05:53:44;7.67;;;6.27;;
47529;SDS011;33272;51.922;7.730;2022-12-07T05:56:11;8.03;;;6.33;;
47529;SDS011;33272;51.922;7.730;2022-12-07T05:58:39;9.33;;;6.33;;
47529;SDS011;33272;51.922;7.730;2022-12-07T06:01:24;9.63;;;6.43;;
47529;SDS011;33272;51.922;7.730;2022-12-07T06:03:51;8.70;;;6.17;;
47529;SDS011;33272;51.922;7.730;2022-12-07T06:06:18;9.17;;;5.47;;
47529;SDS011;33272;51.922;7.730;2022-12-07T06:08:45;8.77;;;5.63;;
47529;SDS011;33272;51.922;7.730;2022-12-07T06:11:12;11.00;;;5.80;;
47529;SDS011;33272;51.922;7.730;2022-12-07T06:13:56;5.63;;;4.70;;
47529;SDS011;33272;51.922;7.730;2022-12-07T06:16:25;7.63;;;5.10;;
47529;SDS011;33272;51.922;7.730;2022-12-07T06:18:52;9.37;;;5.27;;
47529;SDS011;33272;51.922;7.730;2022-12-07T06:21:19;9.10;;;5.23;;
47529;SDS011;33272;51.922;7.730;2022-12-07T06:23:46;7.73;;;5.27;;
47529;SDS011;33272;51.922;7.730;2022-12-07T06:26:13;9.90;;;5.23;;
47529;SDS011;33272;51.922;7.730;2022-12-07T06:28:41;6.73;;;4.50;;
47529;SDS011;33272;51.922;7.730;2022-12-07T06:31:08;7.97;;;4.70;;
47529;SDS011;33272;51.922;7.730;2022-12-07T06:33:37;7.07;;;4.87;;
47529;SDS011;33272;51.922;7.730;2022-12-07T06:36:04;7.97;;;4.97;;
47529;SDS011;33272;51.922;7.730;2022-12-07T06:38:31;7.50;;;4.77;;
47529;SDS011;33272;51.922;7.730;2022-12-07T06:40:58;8.17;;;4.33;;
47529;SDS011;33272;51.922;7.730;2022-12-07T06:43:25;9.03;;;5.03;;
47529;SDS011;33272;51.922;7.730;2022-12-07T06:45:52;8.63;;;4.23;;
47529;SDS011;33272;51.922;7.730;2022-12-07T06:48:20;5.63;;;3.93;;
47529;SDS011;33272;51.922;7.730;2022-12-07T06:50:48;8.53;;;4.03;;
47529;SDS011;33272;51.922;7.730;2022-12-07T06:53:15;6.00;;;4.20;;
47529;SDS011;33272;51.922;7.730;2022-12-07T06:55:42;8.13;;;3.93;;
47529;SDS011;33272;51.922;7.730;2022-12-07T06:58:09;5.97;;;4.17;;
47529;SDS011;33272;51.922;7.730;2022-12-07T07:00:36;7.20;;;4.43;;
47529;SDS011;33272;51.922;7.730;2022-12-07T07:03:03;9.97;;;4.10;;
47529;SDS011;33272;51.922;7.730;2022-12-07T07:05:30;6.50;;;4.07;;
47529;SDS011;33272;51.922;7.730;2022-12-07T07:07:58;6.87;;;4.13;;
47529;SDS011;33272;51.922;7.730;2022-12-07T07:10:25;7.13;;;4.13;;
47529;SDS011;33272;51.922;7.730;2022-12-07T07:12:52;7.87;;;4.70;;
47529;SDS011;33272;51.922;7.730;2022-12-07T07:15:19;6.97;;;4.17;;
47529;SDS011;33272;51.922;7.730;2022-12-07T07:17:46;8.77;;;4.33;;
47529;SDS011;33272;51.922;7.730;2022-12-07T07:20:13;7.00;;;4.37;;
47529;SDS011;33272;51.922;7.730;2022-12-07T07:22:40;8.07;;;4.37;;
47529;SDS011;33272;51.922;7.730;2022-12-07T07:25:09;7.23;;;4.33;;
47529;SDS011;33272;51.922;7.730;2022-12-07T07:27:36;8.60;;;4.17;;
47529;SDS011;33272;51.922;7.730;2022-12-07T07:30:03;9.63;;;4.70;;
47529;SDS011;33272;51.922;7.730;2022-12-07T07:32:32;9.07;;;5.07;;
47529;SDS011;33272;51.922;7.730;2022-12-07T07:34:59;7.17;;;5.20;;
47529;SDS011;33272;51.922;7.730;2022-12-07T07:37:26;7.73;;;4.47;;
47529;SDS011;33272;51.922;7.730;2022-12-07T07:39:53;5.83;;;4.73;;
47529;SDS011;33272;51.922;7.730;2022-12-07T07:42:22;9.43;;;5.10;;
47529;SDS011;33272;51.922;7.730;2022-12-07T07:44:49;7.30;;;4.93;;
47529;SDS011;33272;51.922;7.730;2022-12-07T07:47:16;7.93;;;4.40;;
47529;SDS011;33272;51.922;7.730;2022-12-07T07:49:43;8.67;;;4.53;;
47529;SDS011;33272;51.922;7.730;2022-12-07T07:52:10;7.20;;;4.50;;
47529;SDS011;33272;51.922;7.730;2022-12-07T07:54:36;6.77;;;4.07;;
47529;SDS011;33272;51.922;7.730;2022-12-07T07:57:03;9.87;;;5.13;;
47529;SDS011;33272;51.922;7.730;2022-12-07T07:59:32;12.53;;;4.70;;
47529;SDS011;33272;51.922;7.730;2022-12-07T08:01:59;8.67;;;3.83;;
47529;SDS011;33272;51.922;7.730;2022-12-07T08:04:26;7.50;;;4.27;;
47529;SDS011;33272;51.922;7.730;2022-12-07T08:06:53;7.07;;;4.37;;
47529;SDS011;33272;51.922;7.730;2022-12-07T08:09:20;6.47;;;3.80;;
47529;SDS011;33272;51.922;7.730;2022-12-07T08:11:47;8.27;;;4.20;;
47529;SDS011;33272;51.922;7.730;2022-12-07T08:14:14;8.80;;;4.77;;
47529;SDS011;33272;51.922;7.730;2022-12-07T08:16:42;8.20;;;4.50;;
47529;SDS011;33272;51.922;7.730;2022-12-07T08:19:09;9.80;;;4.63;;
47529;SDS011;33272;51.922;7.730;2022-12-07T08:21:37;6.37;;;4.13;;
47529;SDS011;33272;51.922;7.730;2022-12-07T08:24:04;6.87;;;4.60;;
47529;SDS011;33272;51.922;7.730;2022-12-07T08:26:31;6.07;;;3.97;;
47529;SDS011;33272;51.922;7.730;2022-12-07T08:28:58;6.37;;;3.77;;
47529;SDS011;33272;51.922;7.730;2022-12-07T08:31:26;6.37;;;4.07;;
47529;SDS011;33272;51.922;7.730;2022-12-07T08:33:55;6.30;;;4.17;;
47529;SDS011;33272;51.922;7.730;2022-12-07T08:36:22;7.90;;;4.30;;
47529;SDS011;33272;51.922;7.730;2022-12-07T08:38:50;6.63;;;3.90;;
47529;SDS011;33272;51.922;7.730;2022-12-07T08:41:17;10.53;;;5.07;;
47529;SDS011;33272;51.922;7.730;2022-12-07T08:43:44;7.67;;;4.37;;
47529;SDS011;33272;51.922;7.730;2022-12-07T08:46:12;6.07;;;4.37;;
47529;SDS011;33272;51.922;7.730;2022-12-07T08:48:45;7.07;;;3.97;;
47529;SDS011;33272;51.922;7.730;2022-12-07T08:51:17;8.60;;;4.33;;
47529;SDS011;33272;51.922;7.730;2022-12-07T08:53:45;6.90;;;4.73;;
47529;SDS011;33272;51.922;7.730;2022-12-07T08:56:12;7.53;;;4.37;;
47529;SDS011;33272;51.922;7.730;2022-12-07T08:58:40;9.33;;;4.80;;
47529;SDS011;33272;51.922;7.730;2022-12-07T09:01:07;8.47;;;4.70;;
47529;SDS011;33272;51.922;7.730;2022-12-07T09:03:34;8.50;;;4.67;;
47529;SDS011;33272;51.922;7.730;2022-12-07T09:06:01;8.37;;;4.30;;
47529;SDS011;33272;51.922;7.730;2022-12-07T09:08:31;7.27;;;4.30;;
47529;SDS011;33272;51.922;7.730;2022-12-07T09:11:02;9.80;;;4.53;;
47529;SDS011;33272;51.922;7.730;2022-12-07T09:13:30;8.20;;;3.97;;
47529;SDS011;33272;51.922;7.730;2022-12-07T09:15:56;9.30;;;3.57;;
47529;SDS011;33272;51.922;7.730;2022-12-07T09:18:23;8.03;;;4.17;;
47529;SDS011;33272;51.922;7.730;2022-12-07T09:20:50;7.57;;;3.87;;
47529;SDS011;33272;51.922;7.730;2022-12-07T09:23:18;7.03;;;4.33;;
47529;SDS011;33272;51.922;7.730;2022-12-07T09:25:46;8.37;;;3.57;;
47529;SDS011;33272;51.922;7.730;2022-12-07T09:28:13;7.97;;;3.43;;
47529;SDS011;33272;51.922;7.730;2022-12-07T09:30:44;7.07;;;3.60;;
47529;SDS011;33272;51.922;7.730;2022-12-07T09:33:13;7.20;;;3.90;;
47529;SDS011;33272;51.922;7.730;2022-12-07T09:35:43;7.73;;;3.60;;
47529;SDS011;33272;51.922;7.730;2022-12-07T09:38:11;7.70;;;3.10;;
47529;SDS011;33272;51.922;7.730;2022-12-07T09:40:38;7.20;;;3.13;;
47529;SDS011;33272;51.922;7.730;2022-12-07T09:43:11;6.50;;;3.37;;
47529;SDS011;33272;51.922;7.730;2022-12-07T09:45:40;5.33;;;3.27;;
47529;SDS011;33272;51.922;7.730;2022-12-07T09:48:12;7.80;;;3.93;;
47529;SDS011;33272;51.922;7.730;2022-12-07T09:50:45;10.53;;;3.93;;
47529;SDS011;33272;51.922;7.730;2022-12-07T09:53:15;7.70;;;3.67;;
47529;SDS011;33272;51.922;7.730;2022-12-07T09:55:53;11.00;;;4.30;;
47529;SDS011;33272;51.922;7.730;2022-12-07T09:58:23;6.73;;;4.00;;
47529;SDS011;33272;51.922;7.730;2022-12-07T10:00:52;9.50;;;4.03;;
47529;SDS011;33272;51.922;7.730;2022-12-07T10:03:22;9.47;;;4.40;;
47529;SDS011;33272;51.922;7.730;2022-12-07T10:05:50;8.33;;;4.13;;
47529;SDS011;33272;51.922;7.730;2022-12-07T10:08:18;6.03;;;3.47;;
47529;SDS011;33272;51.922;7.730;2022-12-07T10:10:46;9.40;;;3.80;;
47529;SDS011;33272;51.922;7.730;2022-12-07T10:13:19;12.30;;;4.07;;
47529;SDS011;33272;51.922;7.730;2022-12-07T10:15:50;6.30;;;3.50;;
47529;SDS011;33272;51.922;7.730;2022-12-07T10:18:25;8.13;;;4.07;;
47529;SDS011;33272;51.922;7.730;2022-12-07T10:21:05;6.63;;;4.50;;
47529;SDS011;33272;51.922;7.730;2022-12-07T10:23:39;6.40;;;3.37;;
47529;SDS011;33272;51.922;7.730;2022-12-07T10:26:21;8.87;;;3.80;;
47529;SDS011;33272;51.922;7.730;2022-12-07T10:28:55;5.00;;;3.83;;
47529;SDS011;33272;51.922;7.730;2022-12-07T10:31:26;8.40;;;4.13;;
47529;SDS011;33272;51.922;7.730;2022-12-07T10:33:55;5.97;;;3.70;;
47529;SDS011;33272;51.922;7.730;2022-12-07T10:36:24;7.40;;;3.20;;
47529;SDS011;33272;51.922;7.730;2022-12-07T10:39:00;7.90;;;4.10;;
47529;SDS011;33272;51.922;7.730;2022-12-07T10:41:38;8.50;;;4.10;;
47529;SDS011;33272;51.922;7.730;2022-12-07T10:44:21;6.03;;;3.60;;
47529;SDS011;33272;51.922;7.730;2022-12-07T10:53:02;5.00;;;3.93;;
47529;SDS011;33272;51.922;7.730;2022-12-07T10:56:02;5.73;;;3.43;;
47529;SDS011;33272;51.922;7.730;2022-12-07T10:59:03;4.57;;;3.83;;
47529;SDS011;33272;51.922;7.730;2022-12-07T11:01:54;6.33;;;3.53;;
47529;SDS011;33272;51.922;7.730;2022-12-07T11:04:35;6.93;;;3.40;;
47529;SDS011;33272;51.922;7.730;2022-12-07T11:07:10;7.27;;;3.60;;
47529;SDS011;33272;51.922;7.730;2022-12-07T11:09:49;6.07;;;3.33;;
47529;SDS011;33272;51.922;7.730;2022-12-07T11:12:35;4.87;;;2.60;;
47529;SDS011;33272;51.922;7.730;2022-12-07T11:15:21;5.43;;;3.23;;
47529;SDS011;33272;51.922;7.730;2022-12-07T11:17:56;3.97;;;2.87;;
47529;SDS011;33272;51.922;7.730;2022-12-07T11:20:39;7.37;;;2.60;;
47529;SDS011;33272;51.922;7.730;2022-12-07T11:23:16;4.67;;;2.50;;
47529;SDS011;33272;51.922;7.730;2022-12-07T11:25:54;6.00;;;2.50;;
47529;SDS011;33272;51.922;7.730;2022-12-07T11:28:33;5.50;;;2.43;;
47529;SDS011;33272;51.922;7.730;2022-12-07T11:31:16;7.50;;;2.50;;
47529;SDS011;33272;51.922;7.730;2022-12-07T11:33:52;6.10;;;2.43;;
47529;SDS011;33272;51.922;7.730;2022-12-07T11:36:33;5.20;;;2.17;;
47529;SDS011;33272;51.922;7.730;2022-12-07T11:39:10;5.47;;;2.30;;
47529;SDS011;33272;51.922;7.730;2022-12-07T11:41:49;4.97;;;2.20;;
47529;SDS011;33272;51.922;7.730;2022-12-07T11:44:24;5.50;;;2.43;;
47529;SDS011;33272;51.922;7.730;2022-12-07T11:46:58;5.07;;;2.30;;
47529;SDS011;33272;51.922;7.730;2022-12-07T11:49:37;7.43;;;2.33;;
47529;SDS011;33272;51.922;7.730;2022-12-07T11:52:13;8.77;;;3.00;;
47529;SDS011;33272;51.922;7.730;2022-12-07T11:54:48;6.93;;;2.57;;
47529;SDS011;33272;51.922;7.730;2022-12-07T11:57:20;4.43;;;2.30;;
47529;SDS011;33272;51.922;7.730;2022-12-07T11:59:56;5.97;;;2.33;;
47529;SDS011;33272;51.922;7.730;2022-12-07T12:02:31;6.83;;;3.00;;
47529;SDS011;33272;51.922;7.730;2022-12-07T12:05:05;6.40;;;2.20;;
47529;SDS011;33272;51.922;7.730;2022-12-07T12:07:46;4.27;;;2.40;;
47529;SDS011;33272;51.922;7.730;2022-12-07T12:10:21;4.00;;;1.97;;
47529;SDS011;33272;51.922;7.730;2022-12-07T12:13:08;5.90;;;2.23;;
47529;SDS011;33272;51.922;7.730;2022-12-07T12:16:11;7.23;;;2.30;;
47529;SDS011;33272;51.922;7.730;2022-12-07T12:19:03;5.17;;;2.30;;
47529;SDS011;33272;51.922;7.730;2022-12-07T12:21:45;6.00;;;2.50;;
47529;SDS011;33272;51.922;7.730;2022-12-07T12:24:16;6.80;;;2.33;;
47529;SDS011;33272;51.922;7.730;2022-12-07T12:26:49;6.77;;;2.30;;
47529;SDS011;33272;51.922;7.730;2022-12-07T12:29:21;8.20;;;3.30;;
47529;SDS011;33272;51.922;7.730;2022-12-07T12:32:07;4.93;;;2.60;;
47529;SDS011;33272;51.922;7.730;2022-12-07T12:34:41;5.30;;;2.67;;
47529;SDS011;33272;51.922;7.730;2022-12-07T12:37:38;4.90;;;2.33;;
47529;SDS011;33272;51.922;7.730;2022-12-07T12:46:37;6.73;;;2.70;;
47529;SDS011;33272;51.922;7.730;2022-12-07T13:01:53;5.07;;;2.27;;
47529;SDS011;33272;51.922;7.730;2022-12-07T13:04:47;5.60;;;2.33;;
47529;SDS011;33272;51.922;7.730;2022-12-07T13:10:24;6.33;;;2.30;;
47529;SDS011;33272;51.922;7.730;2022-12-07T13:22:35;6.77;;;3.27;;
47529;SDS011;33272;51.922;7.730;2022-12-07T13:25:27;4.63;;;2.20;;
47529;SDS011;33272;51.922;7.730;2022-12-07T13:28:02;2.97;;;2.40;;
47529;SDS011;33272;51.922;7.730;2022-12-07T13:30:46;5.67;;;2.63;;
47529;SDS011;33272;51.922;7.730;2022-12-07T13:33:27;4.73;;;2.43;;
47529;SDS011;33272;51.922;7.730;2022-12-07T13:35:55;4.23;;;2.10;;
47529;SDS011;33272;51.922;7.730;2022-12-07T13:38:26;4.83;;;2.10;;
47529;SDS011;33272;51.922;7.730;2022-12-07T13:40:59;6.93;;;2.47;;
47529;SDS011;33272;51.922;7.730;2022-12-07T13:43:29;6.00;;;2.60;;
47529;SDS011;33272;51.922;7.730;2022-12-07T13:45:57;3.27;;;2.27;;
47529;SDS011;33272;51.922;7.730;2022-12-07T13:48:27;6.10;;;2.33;;
47529;SDS011;33272;51.922;7.730;2022-12-07T13:51:01;4.00;;;2.17;;
47529;SDS011;33272;51.922;7.730;2022-12-07T13:53:30;2.83;;;2.47;;
47529;SDS011;33272;51.922;7.730;2022-12-07T13:55:57;3.60;;;2.20;;
47529;SDS011;33272;51.922;7.730;2022-12-07T13:58:26;5.07;;;2.23;;
47529;SDS011;33272;51.922;7.730;2022-12-07T14:00:59;8.23;;;3.00;;
47529;SDS011;33272;51.922;7.730;2022-12-07T14:03:27;4.57;;;1.97;;
47529;SDS011;33272;51.922;7.730;2022-12-07T14:06:05;5.00;;;2.03;;
47529;SDS011;33272;51.922;7.730;2022-12-07T14:08:40;6.63;;;2.20;;
47529;SDS011;33272;51.922;7.730;2022-12-07T14:11:07;6.83;;;2.20;;
47529;SDS011;33272;51.922;7.730;2022-12-07T14:13:51;4.40;;;2.00;;
47529;SDS011;33272;51.922;7.730;2022-12-07T14:16:26;3.50;;;2.03;;
47529;SDS011;33272;51.922;7.730;2022-12-07T14:18:57;4.23;;;1.97;;
47529;SDS011;33272;51.922;7.730;2022-12-07T14:21:26;6.00;;;2.43;;
47529;SDS011;33272;51.922;7.730;2022-12-07T14:26:43;6.93;;;2.33;;
47529;SDS011;33272;51.922;7.730;2022-12-07T14:32:21;3.17;;;1.93;;
47529;SDS011;33272;51.922;7.730;2022-12-07T14:34:58;4.77;;;1.80;;
47529;SDS011;33272;51.922;7.730;2022-12-07T14:37:31;4.93;;;2.23;;
47529;SDS011;33272;51.922;7.730;2022-12-07T14:39:58;6.07;;;2.23;;
47529;SDS011;33272;51.922;7.730;2022-12-07T14:42:27;5.47;;;2.43;;
47529;SDS011;33272;51.922;7.730;2022-12-07T14:44:56;3.83;;;1.97;;
47529;SDS011;33272;51.922;7.730;2022-12-07T14:47:26;4.57;;;1.80;;
47529;SDS011;33272;51.922;7.730;2022-12-07T14:49:53;6.23;;;2.17;;
47529;SDS011;33272;51.922;7.730;2022-12-07T14:52:20;3.50;;;1.97;;
47529;SDS011;33272;51.922;7.730;2022-12-07T14:54:52;4.40;;;1.70;;
47529;SDS011;33272;51.922;7.730;2022-12-07T14:57:19;5.43;;;1.50;;
47529;SDS011;33272;51.922;7.730;2022-12-07T14:59:46;8.43;;;1.90;;
47529;SDS011;33272;51.922;7.730;2022-12-07T15:02:13;6.13;;;2.23;;
47529;SDS011;33272;51.922;7.730;2022-12-07T15:04:43;3.90;;;1.67;;
47529;SDS011;33272;51.922;7.730;2022-12-07T15:07:15;3.50;;;1.47;;
47529;SDS011;33272;51.922;7.730;2022-12-07T15:09:46;4.77;;;1.60;;
47529;SDS011;33272;51.922;7.730;2022-12-07T15:12:13;2.57;;;1.50;;
47529;SDS011;33272;51.922;7.730;2022-12-07T15:14:40;3.67;;;1.60;;
47529;SDS011;33272;51.922;7.730;2022-12-07T15:17:08;5.00;;;1.70;;
47529;SDS011;33272;51.922;7.730;2022-12-07T15:19:37;5.27;;;1.60;;
47529;SDS011;33272;51.922;7.730;2022-12-07T15:22:05;5.60;;;2.30;;
47529;SDS011;33272;51.922;7.730;2022-12-07T15:24:33;6.87;;;2.17;;
47529;SDS011;33272;51.922;7.730;2022-12-07T15:27:00;3.60;;;1.77;;
47529;SDS011;33272;51.922;7.730;2022-12-07T15:29:27;5.10;;;2.03;;
47529;SDS011;33272;51.922;7.730;2022-12-07T15:31:54;4.03;;;1.87;;
47529;SDS011;33272;51.922;7.730;2022-12-07T15:34:22;4.07;;;2.07;;
47529;SDS011;33272;51.922;7.730;2022-12-07T15:36:51;5.03;;;2.07;;
47529;SDS011;33272;51.922;7.730;2022-12-07T15:39:19;3.70;;;1.83;;
47529;SDS011;33272;51.922;7.730;2022-12-07T15:41:47;5.97;;;2.30;;
47529;SDS011;33272;51.922;7.730;2022-12-07T15:44:14;5.47;;;1.80;;
47529;SDS011;33272;51.922;7.730;2022-12-07T15:46:59;4.23;;;2.17;;
47529;SDS011;33272;51.922;7.730;2022-12-07T15:49:26;3.47;;;2.20;;
47529;SDS011;33272;51.922;7.730;2022-12-07T15:51:54;3.87;;;2.30;;